ROMMA est une association bénévole à but non lucratif. Votre soutien est indispensable : ADHERER à ROMMA ou FAIRE un DON

Chindrieux - (73, Savoie)

Chautagne (260 m)   Longitude: 05°50' E   Latitude: 45°49' N Station partenaire n°74
 

Détail journalier du     <<     >>

Température Precipitation Humidité Pression Vent Dir Rafale Dir. rafale Ensol.
Heure (°C) (mm) (%) (hPa) (km/h) (km/h) (min)
01:00 15.905910212ENE11ENE0
02:00 13.706610212ENE8ENE0
03:00 13.206710212ENE5ENE0
04:00 11.907310213N8NNE0
05:00 10.108010212N6N0
06:00 8.308510221N6N0
07:00 7.6090102303N0
08:00 7.7091102405N0
09:00 8.6091102405N0
10:00 10.9087102505N0
11:00 15.207010241N5N40
12:00 18.005810242N8NNO60
13:00 20.904810232N8OSO60
14:00 22.404510232SE8SE60
15:00 23.203810225SSE15SE60
16:00 24.103910227S16SSE60
17:00 24.303510216SSE15SE60
18:00 24.803110215S13SE60
19:00 24.903110212SSO10SSO60
20:00 22.603810223NE16ENE60
21:00 21.104010226NNE19N0
22:00 19.105010232NNO8NNE0
23:00 16.2058102305NNO0
minuit 14.906410231NNO8SE0

Graphique du 19-04-2019

 

Serveur OMMA